createdAt,value
2023-03-13T00:02:41.420Z,0.07
2023-03-13T00:05:47.833Z,-0.73
2023-03-13T00:08:54.170Z,-1.08
2023-03-13T00:12:00.581Z,-1.02
2023-03-13T00:15:08.007Z,-1.19
2023-03-13T00:18:15.879Z,-0.96
2023-03-13T00:21:24.332Z,-0.51
2023-03-13T00:24:30.949Z,-0.50
2023-03-13T00:27:37.589Z,-1.38
2023-03-13T00:30:44.370Z,-1.42
2023-03-13T00:33:54.264Z,-2.00
2023-03-13T00:37:00.597Z,-1.16
2023-03-13T00:40:08.330Z,-1.15
2023-03-13T00:43:14.806Z,-0.80
2023-03-13T00:46:23.436Z,-0.82
2023-03-13T00:49:31.263Z,-0.46
2023-03-13T00:52:37.822Z,-0.57
2023-03-13T00:55:53.922Z,-1.20
2023-03-13T00:59:02.061Z,-0.86
2023-03-13T01:02:08.369Z,-0.99
2023-03-13T01:05:16.154Z,-0.83
2023-03-13T01:08:22.612Z,-1.19
2023-03-13T01:11:31.365Z,-1.67
2023-03-13T01:14:37.868Z,-1.83
2023-03-13T01:17:45.658Z,-1.42
2023-03-13T01:20:52.922Z,-2.08
2023-03-13T01:23:59.595Z,-1.30
2023-03-13T01:27:05.944Z,-1.01
2023-03-13T01:30:13.666Z,-1.69
2023-03-13T01:33:19.751Z,-1.67
2023-03-13T01:36:28.634Z,-1.53
2023-03-13T01:39:34.798Z,-1.41
2023-03-13T01:42:54.506Z,-1.27
2023-03-13T01:46:04.075Z,-1.83
2023-03-13T01:49:14.478Z,-1.51
2023-03-13T01:52:25.874Z,-1.80
2023-03-13T01:55:31.916Z,-1.69
2023-03-13T01:58:39.238Z,-1.74
2023-03-13T02:01:48.590Z,-1.48
2023-03-13T02:04:59.796Z,-1.48
2023-03-13T02:08:10.817Z,-1.79
2023-03-13T02:11:26.023Z,-1.55
2023-03-13T02:14:37.070Z,-2.68
2023-03-13T02:17:44.366Z,-2.06
2023-03-13T02:20:55.371Z,-1.98
2023-03-13T02:24:14.831Z,-1.33
2023-03-13T02:27:23.011Z,-1.50
2023-03-13T02:30:30.299Z,-1.75
2023-03-13T02:33:40.636Z,-1.31
2023-03-13T02:36:47.616Z,-1.21
2023-03-13T02:39:55.143Z,-2.09
2023-03-13T02:43:04.697Z,-2.32
2023-03-13T02:46:14.323Z,-1.90
2023-03-13T02:49:28.353Z,-2.53
2023-03-13T02:52:39.319Z,-2.07
2023-03-13T02:55:46.081Z,-2.14
2023-03-13T02:58:54.454Z,-1.99
2023-03-13T03:02:00.756Z,-1.79
2023-03-13T03:05:07.659Z,-1.68
2023-03-13T03:08:13.903Z,-1.97
2023-03-13T03:11:20.354Z,-1.86
2023-03-13T03:14:27.782Z,-1.82
2023-03-13T03:17:34.120Z,-1.34
2023-03-13T03:20:40.094Z,-1.56
2023-03-13T03:23:46.116Z,-1.66
2023-03-13T03:26:52.519Z,-2.16
2023-03-13T03:30:00.029Z,-2.38
2023-03-13T03:33:06.393Z,-2.24
2023-03-13T03:36:14.590Z,-2.33
2023-03-13T03:39:20.879Z,-2.60
2023-03-13T03:42:27.365Z,-2.14
2023-03-13T03:45:35.007Z,-2.54
2023-03-13T03:48:41.212Z,-2.22
2023-03-13T03:51:48.753Z,-2.54
2023-03-13T03:54:54.977Z,-2.19
2023-03-13T03:58:01.185Z,-2.29
2023-03-13T04:01:08.998Z,-2.26
2023-03-13T04:04:15.277Z,-2.86
2023-03-13T04:07:21.465Z,-2.58
2023-03-13T04:10:27.406Z,-2.84
2023-03-13T04:13:33.400Z,-2.93
2023-03-13T04:16:40.812Z,-2.99
2023-03-13T04:19:47.088Z,-3.29
2023-03-13T04:22:53.277Z,-3.02
2023-03-13T04:25:59.302Z,-2.51
2023-03-13T04:29:06.514Z,-2.87
2023-03-13T04:32:14.209Z,-3.17
2023-03-13T04:35:20.547Z,-3.63
2023-03-13T04:38:26.599Z,-3.77
2023-03-13T04:41:32.983Z,-3.36
2023-03-13T04:44:40.053Z,-2.64
2023-03-13T04:47:49.249Z,-2.47
2023-03-13T04:50:55.623Z,-1.84
2023-03-13T04:54:01.714Z,-1.81
2023-03-13T04:57:08.205Z,-1.80
2023-03-13T05:00:14.990Z,-2.17
2023-03-13T05:03:22.709Z,-2.94
2023-03-13T05:06:29.022Z,-2.59
2023-03-13T05:09:35.084Z,-3.12
2023-03-13T05:12:41.009Z,-3.03
2023-03-13T05:15:46.963Z,-3.15
2023-03-13T05:18:54.383Z,-3.09
2023-03-13T05:22:00.824Z,-2.91
2023-03-13T05:25:07.532Z,-2.99
2023-03-13T05:28:14.023Z,-2.17
2023-03-13T05:31:20.331Z,-1.98
2023-03-13T05:34:28.287Z,-1.26
2023-03-13T05:37:34.914Z,-1.15
2023-03-13T05:40:41.354Z,-0.99
2023-03-13T05:43:47.997Z,-0.45
2023-03-13T05:46:54.442Z,-0.24
2023-03-13T05:50:02.283Z,-0.26
2023-03-13T05:53:08.792Z,0.05
2023-03-13T05:56:15.216Z,0.17
2023-03-13T05:59:21.507Z,0.22
2023-03-13T06:02:27.870Z,0.59
2023-03-13T06:05:35.862Z,0.98
2023-03-13T06:08:42.327Z,0.92
2023-03-13T06:11:48.561Z,0.38
2023-03-13T06:14:54.961Z,0.77
2023-03-13T06:18:01.428Z,0.77
2023-03-13T06:21:09.176Z,0.77
2023-03-13T06:24:15.574Z,1.12
2023-03-13T06:27:21.728Z,1.25
2023-03-13T06:30:27.994Z,0.61
2023-03-13T06:33:34.533Z,1.42
2023-03-13T06:36:42.306Z,1.68
2023-03-13T06:39:48.444Z,1.82
2023-03-13T06:42:54.721Z,2.07
2023-03-13T06:46:06.411Z,1.91
2023-03-13T06:49:12.735Z,1.76
2023-03-13T06:52:21.238Z,2.23
2023-03-13T06:55:28.333Z,2.53
2023-03-13T06:58:35.187Z,2.98
2023-03-13T07:01:41.498Z,3.01
2023-03-13T07:04:47.956Z,3.32
2023-03-13T07:07:55.752Z,2.89
2023-03-13T07:11:03.885Z,3.64
2023-03-13T07:14:17.009Z,3.67
2023-03-13T07:17:24.164Z,3.90
2023-03-13T07:20:30.368Z,4.19
2023-03-13T07:23:38.034Z,4.41
2023-03-13T07:27:01.546Z,4.52
2023-03-13T07:30:11.556Z,4.41
2023-03-13T07:33:18.230Z,4.91
2023-03-13T07:36:24.410Z,4.73
2023-03-13T07:39:31.874Z,4.72
2023-03-13T07:42:40.819Z,5.12
2023-03-13T07:45:57.889Z,5.26
2023-03-13T07:49:04.407Z,5.38
2023-03-13T07:52:11.629Z,5.26
2023-03-13T07:55:19.658Z,5.90
2023-03-13T07:58:27.001Z,5.94
2023-03-13T08:01:33.552Z,6.08
2023-03-13T08:04:40.161Z,6.37
2023-03-13T08:07:46.734Z,6.17
2023-03-13T08:10:54.931Z,6.01
2023-03-13T08:14:01.612Z,6.01
2023-03-13T08:17:08.071Z,6.18
2023-03-13T08:20:14.838Z,6.72
2023-03-13T08:23:21.240Z,6.02
2023-03-13T08:26:31.190Z,6.37
2023-03-13T08:29:37.702Z,6.88
2023-03-13T08:32:44.354Z,7.25
2023-03-13T08:35:50.702Z,7.54
2023-03-13T08:39:00.285Z,7.60
2023-03-13T08:42:09.820Z,7.56
2023-03-13T08:45:16.291Z,7.10
2023-03-13T08:48:23.050Z,7.51
2023-03-13T08:51:30.316Z,7.35
2023-03-13T08:54:36.523Z,7.25
2023-03-13T08:57:44.518Z,8.45
2023-03-13T09:00:50.926Z,7.98
2023-03-13T09:03:58.049Z,8.50
2023-03-13T09:07:04.801Z,8.26
2023-03-13T09:10:12.134Z,8.97
2023-03-13T09:13:19.846Z,8.97
2023-03-13T09:20:00.137Z,8.85
2023-03-13T09:23:06.837Z,8.92
2023-03-13T09:26:14.729Z,9.00
2023-03-13T09:29:22.816Z,8.67
2023-03-13T09:32:29.429Z,9.44
2023-03-13T09:35:35.918Z,9.40
2023-03-13T09:38:42.637Z,9.07
2023-03-13T09:41:57.030Z,9.02
2023-03-13T09:45:10.432Z,9.45
2023-03-13T09:48:26.230Z,9.03
2023-03-13T09:51:37.485Z,9.50
2023-03-13T09:54:48.838Z,9.62
2023-03-13T09:57:57.716Z,9.77
2023-03-13T10:01:07.178Z,10.08
2023-03-13T10:04:30.529Z,10.21
2023-03-13T10:07:38.192Z,9.18
2023-03-13T10:10:47.556Z,10.01
2023-03-13T10:13:58.210Z,10.12
2023-03-13T10:17:14.824Z,9.76
2023-03-13T10:20:25.805Z,10.68
2023-03-13T10:23:39.965Z,10.58
2023-03-13T10:26:46.096Z,10.91
2023-03-13T10:29:52.213Z,10.33
2023-03-13T10:33:23.454Z,10.43
2023-03-13T10:36:41.791Z,10.95
2023-03-13T10:39:47.985Z,10.80
2023-03-13T10:43:01.239Z,11.14
2023-03-13T10:46:09.898Z,12.14
2023-03-13T10:49:19.551Z,11.59
2023-03-13T10:52:42.619Z,11.81
2023-03-13T10:55:49.114Z,11.27
2023-03-13T10:58:55.147Z,11.67
2023-03-13T11:02:02.670Z,11.11
